Time;durP1;ratioP1;P1;durP2;ratioP2;P2;SDS_P1;SDS_P2;PMS_P1;PMS_P2;Temp;Humidity;BMP_temperature;BMP_pressure;BME280_temperature;BME280_humidity;BME280_pressure;Samples;Min_cycle;Max_cycle;Signal;HPM_P1;HPM_P2
2024/01/20 00:00:22;;;;;;;25.75;7.90;;;;;;;-1.10;74.44;101607.69;6271749;22;20020;-67
2024/01/20 00:02:49;;;;;;;22.58;7.90;;;;;;;-1.10;74.00;101610.34;6270929;22;20054;-68
2024/01/20 00:05:16;;;;;;;20.83;8.13;;;;;;;-1.06;73.65;101602.28;6245629;22;20358;-68
2024/01/20 00:07:43;;;;;;;21.65;7.85;;;;;;;-1.07;74.09;101605.84;6273297;22;20047;-68
2024/01/20 00:10:11;;;;;;;26.05;8.40;;;;;;;-1.17;74.74;101603.47;6273348;22;20475;-68
2024/01/20 00:12:41;;;;;;;23.48;8.10;;;;;;;-0.99;74.45;101608.31;6272631;22;20390;-68
2024/01/20 00:15:09;;;;;;;20.35;7.95;;;;;;;-1.05;73.92;101596.03;6272142;22;20019;-67
2024/01/20 00:17:37;;;;;;;28.73;8.38;;;;;;;-0.97;74.13;101600.28;6273455;22;20020;-70
2024/01/20 00:20:05;;;;;;;27.35;8.30;;;;;;;-1.09;74.17;101612.13;6272229;22;20027;-69
2024/01/20 00:22:32;;;;;;;25.20;7.97;;;;;;;-1.03;74.05;101612.81;6272545;22;20020;-68
2024/01/20 00:25:02;;;;;;;23.23;8.13;;;;;;;-0.98;74.41;101606.53;6273095;22;20106;-67
2024/01/20 00:27:30;;;;;;;21.67;7.88;;;;;;;-1.01;74.10;101605.66;6269918;22;20094;-68
2024/01/20 00:29:58;;;;;;;28.10;8.55;;;;;;;-0.97;74.56;101603.81;6273689;22;20028;-68
2024/01/20 00:32:28;;;;;;;20.88;7.22;;;;;;;-0.95;73.37;101614.44;6273600;22;20111;-69
2024/01/20 00:34:55;;;;;;;18.25;7.55;;;;;;;-1.03;73.59;101612.81;6272014;22;20028;-67
2024/01/20 00:37:38;;;;;;;29.48;7.97;;;;;;;-1.18;74.06;101625.69;6271835;22;21481;-69
2024/01/20 00:40:06;;;;;;;18.92;7.53;;;;;;;-1.12;74.15;101623.72;6272891;22;20028;-69
2024/01/20 00:42:34;;;;;;;21.52;8.43;;;;;;;-1.11;74.51;101608.59;6272278;22;20031;-70
2024/01/20 00:45:01;;;;;;;16.75;7.40;;;;;;;-0.99;73.87;101618.09;6272334;22;20122;-68
2024/01/20 00:47:28;;;;;;;21.38;7.18;;;;;;;-1.03;73.48;101636.78;6272288;22;20087;-68
2024/01/20 00:49:55;;;;;;;17.48;8.00;;;;;;;-1.03;73.58;101639.44;6271478;22;20035;-68
2024/01/20 00:52:23;;;;;;;25.75;8.85;;;;;;;-1.14;73.94;101638.84;6245234;22;20020;-68
2024/01/20 00:54:51;;;;;;;18.90;7.30;;;;;;;-1.04;74.06;101642.16;6270734;22;20030;-68
2024/01/20 00:57:18;;;;;;;22.92;8.32;;;;;;;-1.04;73.37;101642.16;6271296;22;20027;-68
2024/01/20 00:59:45;;;;;;;16.08;7.03;;;;;;;-1.03;74.30;101647.44;6232607;22;20024;-68
2024/01/20 01:02:12;;;;;;;24.63;7.82;;;;;;;-0.99;73.97;101644.72;6268980;22;20081;-73
2024/01/20 01:04:39;;;;;;;23.42;8.45;;;;;;;-0.99;73.59;101658.91;6274512;22;20019;-69
2024/01/20 01:07:05;;;;;;;26.70;8.43;;;;;;;-0.99;73.56;101652.72;6273337;22;20445;-69
2024/01/20 01:09:32;;;;;;;21.48;7.95;;;;;;;-0.97;73.60;101658.88;6273979;22;20379;-69
2024/01/20 01:11:58;;;;;;;23.65;8.30;;;;;;;-1.01;73.10;101663.38;6259191;22;20024;-68
2024/01/20 01:14:25;;;;;;;22.77;9.82;;;;;;;-1.17;73.95;101670.00;6271859;22;20020;-68
2024/01/20 01:16:52;;;;;;;23.52;8.82;;;;;;;-1.20;74.14;101667.41;6271276;22;20355;-68
2024/01/20 01:19:19;;;;;;;23.73;7.95;;;;;;;-1.18;74.88;101666.47;6244907;22;20096;-69
2024/01/20 01:21:46;;;;;;;18.45;7.82;;;;;;;-1.15;74.46;101671.72;6244724;22;20034;-68
2024/01/20 01:24:13;;;;;;;23.02;8.52;;;;;;;-1.11;74.42;101680.50;6271901;22;20031;-68
2024/01/20 01:26:40;;;;;;;19.30;8.15;;;;;;;-1.20;74.73;101688.69;6271716;22;20095;-67
2024/01/20 01:29:07;;;;;;;25.95;8.45;;;;;;;-1.19;74.38;101690.44;6270196;22;20042;-67
2024/01/20 01:31:34;;;;;;;25.83;9.50;;;;;;;-1.12;74.33;101681.41;6271083;22;20032;-68
2024/01/20 01:34:01;;;;;;;24.25;9.15;;;;;;;-1.09;74.36;101679.56;6270450;22;20117;-67
2024/01/20 01:36:28;;;;;;;16.58;8.13;;;;;;;-1.26;74.55;101686.22;6271756;22;20446;-69
2024/01/20 01:38:54;;;;;;;27.20;9.23;;;;;;;-1.15;74.90;101685.03;6272562;22;20085;-69
2024/01/20 01:41:21;;;;;;;25.58;8.60;;;;;;;-1.36;75.37;101688.22;6272816;22;20084;-69
2024/01/20 01:43:48;;;;;;;25.70;8.20;;;;;;;-1.17;74.86;101692.19;6246362;22;20043;-69
2024/01/20 01:46:15;;;;;;;23.63;8.63;;;;;;;-1.26;74.86;101689.75;6273401;22;20119;-69
2024/01/20 01:48:42;;;;;;;20.13;8.48;;;;;;;-1.24;75.02;101698.56;6273667;22;20445;-69
2024/01/20 01:51:08;;;;;;;23.27;8.57;;;;;;;-1.24;75.01;101687.91;6271984;22;20085;-68
2024/01/20 01:53:36;;;;;;;17.02;8.40;;;;;;;-1.36;75.23;101688.22;6272148;22;20076;-69
2024/01/20 01:56:03;;;;;;;22.35;9.23;;;;;;;-1.20;74.59;101694.03;6272647;22;20023;-68
2024/01/20 01:58:30;;;;;;;28.73;8.63;;;;;;;-1.21;75.07;101687.81;6272317;22;20019;-69
2024/01/20 02:00:56;;;;;;;26.30;10.18;;;;;;;-1.25;75.02;101691.50;6272504;22;20070;-69
2024/01/20 02:03:26;;;;;;;21.73;9.80;;;;;;;-1.12;74.98;101697.38;6272202;22;20364;-69
2024/01/20 02:09:34;;;;;;;22.83;9.23;;;;;;;-1.21;74.45;101701.13;6270384;22;20026;-70
2024/01/20 02:12:02;;;;;;;18.10;8.98;;;;;;;-1.21;74.76;101703.78;6271951;22;20340;-70
2024/01/20 02:14:29;;;;;;;26.73;8.88;;;;;;;-1.21;74.96;101697.59;6273109;22;20024;-69
2024/01/20 02:16:55;;;;;;;25.50;9.35;;;;;;;-1.13;74.90;101691.19;6272628;22;20031;-69
2024/01/20 02:19:22;;;;;;;20.83;9.77;;;;;;;-1.22;74.77;101691.41;6271912;22;20015;-69
2024/01/20 02:21:49;;;;;;;25.90;10.32;;;;;;;-1.19;75.58;101696.66;6271229;22;21431;-69
2024/01/20 02:24:15;;;;;;;30.75;10.90;;;;;;;-1.11;75.40;101692.00;6272555;22;20089;-69
2024/01/20 02:26:42;;;;;;;24.85;9.70;;;;;;;-1.10;75.27;101683.09;6270829;22;20020;-67
2024/01/20 02:29:08;;;;;;;29.25;10.50;;;;;;;-1.17;75.50;101694.84;6269240;22;20099;-67
2024/01/20 02:31:38;;;;;;;27.88;9.70;;;;;;;-0.91;75.02;101690.63;6267940;22;20095;-68
2024/01/20 02:34:04;;;;;;;29.13;10.10;;;;;;;-0.88;75.04;101698.56;6268919;22;20109;-69
2024/01/20 02:36:31;;;;;;;29.75;10.57;;;;;;;-0.99;74.86;101698.84;6268282;22;20023;-68
2024/01/20 02:38:58;;;;;;;26.65;10.43;;;;;;;-0.98;74.86;101699.72;6268925;22;20019;-67
2024/01/20 02:41:25;;;;;;;31.92;10.90;;;;;;;-1.01;75.36;101696.19;6268653;22;20396;-67
2024/01/20 02:43:51;;;;;;;24.10;10.32;;;;;;;-1.00;75.06;101699.75;6239989;22;20081;-67
2024/01/20 02:46:18;;;;;;;25.55;10.00;;;;;;;-0.86;75.08;101715.38;6268237;22;20103;-67
2024/01/20 02:48:44;;;;;;;20.92;10.07;;;;;;;-0.91;74.83;101718.16;6267764;22;20101;-67
2024/01/20 02:51:12;;;;;;;22.60;10.05;;;;;;;-0.81;75.05;101703.72;6268522;22;20110;-67
2024/01/20 02:53:38;;;;;;;24.60;10.65;;;;;;;-0.99;75.45;101720.16;6268767;22;20354;-67
2024/01/20 02:56:05;;;;;;;29.55;10.77;;;;;;;-0.87;74.51;101716.31;6269092;22;20213;-67
2024/01/20 02:58:31;;;;;;;26.80;9.55;;;;;;;-0.97;75.33;101713.00;6268303;22;20053;-68
2024/01/20 03:01:00;;;;;;;20.52;9.90;;;;;;;-0.78;74.75;101708.09;6268968;22;20357;-67
2024/01/20 03:03:28;;;;;;;31.73;10.82;;;;;;;-0.80;74.21;101707.25;6268865;22;20016;-67
2024/01/20 03:05:55;;;;;;;29.42;10.70;;;;;;;-0.76;74.78;101712.44;6268474;22;20051;-67
2024/01/20 03:08:21;;;;;;;30.98;12.38;;;;;;;-0.88;74.80;101706.56;6269145;22;20102;-68
2024/01/20 03:10:48;;;;;;;33.08;11.18;;;;;;;-0.91;74.92;101727.91;6268737;22;20457;-68
2024/01/20 03:13:14;;;;;;;36.78;12.27;;;;;;;-0.87;75.11;101714.50;6269758;22;20323;-68
2024/01/20 03:15:41;;;;;;;28.05;10.75;;;;;;;-0.87;74.65;101705.66;6268738;22;20032;-68
2024/01/20 03:18:08;;;;;;;20.55;9.73;;;;;;;-0.78;74.72;101718.72;6243004;22;20023;-69
2024/01/20 03:20:34;;;;;;;21.50;10.05;;;;;;;-0.74;74.77;101726.59;6270769;22;20449;-70
2024/01/20 03:23:01;;;;;;;23.70;11.65;;;;;;;-0.66;75.08;101715.75;6270333;22;20123;-69
2024/01/20 03:25:28;;;;;;;25.88;11.25;;;;;;;-0.75;75.25;101729.28;6272090;22;20019;-69
2024/01/20 03:27:55;;;;;;;22.13;10.32;;;;;;;-0.71;74.94;101709.69;6269598;22;20034;-69
2024/01/20 03:30:22;;;;;;;25.65;10.32;;;;;;;-0.76;74.94;101732.88;6242434;22;20181;-67
2024/01/20 03:32:50;;;;;;;28.35;10.60;;;;;;;-0.69;74.88;101718.50;6269917;22;24484;-69
2024/01/20 03:35:17;;;;;;;26.73;11.43;;;;;;;-0.80;75.40;101734.75;6268550;22;20091;-67
2024/01/20 03:37:44;;;;;;;25.35;10.30;;;;;;;-0.75;75.73;101735.50;6243691;22;20035;-67
2024/01/20 03:40:10;;;;;;;34.42;10.82;;;;;;;-0.72;75.14;101748.75;6269805;22;20441;-67
2024/01/20 03:42:37;;;;;;;25.08;10.75;;;;;;;-0.81;75.03;101756.97;6269440;22;20094;-68
2024/01/20 03:45:04;;;;;;;30.42;11.70;;;;;;;-0.70;74.73;101754.03;6270037;22;20035;-69
2024/01/20 03:47:31;;;;;;;31.48;10.82;;;;;;;-0.74;74.85;101741.69;6270236;22;20020;-69
2024/01/20 03:49:59;;;;;;;21.15;10.27;;;;;;;-0.76;75.90;101762.19;6263913;22;20423;-70
2024/01/20 03:52:26;;;;;;;25.90;11.20;;;;;;;-0.64;75.02;101759.19;6239203;23;20024;-67
2024/01/20 03:54:53;;;;;;;23.63;10.93;;;;;;;-0.61;74.69;101759.16;6239685;23;20552;-68
2024/01/20 03:57:19;;;;;;;30.15;10.73;;;;;;;-0.70;74.97;101767.38;6214679;23;20044;-68
2024/01/20 03:59:46;;;;;;;25.42;11.00;;;;;;;-0.63;75.01;101765.41;6241129;23;20035;-67
2024/01/20 04:02:13;;;;;;;25.70;10.93;;;;;;;-0.53;74.59;101762.50;6240643;23;20032;-67
2024/01/20 04:04:40;;;;;;;35.17;12.07;;;;;;;-0.54;74.70;101768.72;6240763;23;20024;-67
2024/01/20 04:07:07;;;;;;;24.67;10.75;;;;;;;-0.58;75.13;101769.72;6240879;23;20416;-67
2024/01/20 04:09:34;;;;;;;28.88;10.75;;;;;;;-0.51;74.69;101775.78;6239849;23;20078;-68
2024/01/20 04:12:00;;;;;;;24.75;10.52;;;;;;;-0.53;74.89;101786.47;6240574;23;20032;-68
2024/01/20 04:14:27;;;;;;;23.48;10.65;;;;;;;-0.63;75.28;101773.41;6241448;23;20162;-67
2024/01/20 04:16:54;;;;;;;26.63;11.15;;;;;;;-0.48;74.86;101776.56;6212516;23;20046;-67
2024/01/20 04:19:21;;;;;;;25.75;11.43;;;;;;;-0.52;74.88;101774.91;6240325;23;20436;-69
2024/01/20 04:21:47;;;;;;;27.38;10.90;;;;;;;-0.50;74.38;101773.06;6240639;23;20577;-67
2024/01/20 04:24:14;;;;;;;24.88;10.75;;;;;;;-0.62;74.87;101778.72;6240015;23;20074;-67
2024/01/20 04:26:41;;;;;;;25.77;11.68;;;;;;;-0.60;74.94;101771.56;6239303;23;20116;-68
2024/01/20 04:29:08;;;;;;;24.38;10.48;;;;;;;-0.61;74.99;101768.94;6239586;23;20024;-67
2024/01/20 04:31:34;;;;;;;25.77;11.52;;;;;;;-0.66;75.65;101777.03;6238590;23;20028;-67
2024/01/20 04:34:02;;;;;;;25.05;10.98;;;;;;;-0.69;75.63;101777.09;6240080;23;20086;-68
2024/01/20 04:36:29;;;;;;;25.88;10.18;;;;;;;-0.80;75.65;101774.72;6215158;23;20108;-68
2024/01/20 04:38:56;;;;;;;30.55;12.43;;;;;;;-0.96;76.44;101772.44;6213684;23;20434;-67
2024/01/20 04:41:22;;;;;;;31.05;11.65;;;;;;;-0.99;76.26;101777.84;6239670;23;20025;-67
2024/01/20 04:43:49;;;;;;;23.23;11.18;;;;;;;-0.81;76.27;101778.28;6239636;23;20128;-67
2024/01/20 04:46:15;;;;;;;27.75;10.63;;;;;;;-0.78;76.34;101767.56;6240524;23;20036;-69
2024/01/20 04:48:43;;;;;;;27.88;11.68;;;;;;;-0.94;76.39;101773.28;6214928;23;20358;-73
2024/01/20 04:51:10;;;;;;;26.98;10.75;;;;;;;-0.89;76.11;101779.38;6240668;22;20027;-73
2024/01/20 04:53:36;;;;;;;24.45;10.30;;;;;;;-0.88;76.38;101774.03;6241436;23;20024;-73
2024/01/20 04:56:06;;;;;;;29.13;12.18;;;;;;;-0.90;76.75;101772.31;6241344;23;20028;-72
2024/01/20 04:58:33;;;;;;;25.90;12.10;;;;;;;-0.92;76.33;101780.31;6240739;23;20032;-71
2024/01/20 05:00:59;;;;;;;23.10;11.32;;;;;;;-0.88;76.74;101776.69;6211259;23;20031;-71
2024/01/20 05:03:26;;;;;;;22.23;11.30;;;;;;;-0.97;76.99;101781.34;6239244;23;20016;-73
2024/01/20 05:05:52;;;;;;;26.63;11.50;;;;;;;-0.94;77.07;101770.63;6238537;23;20509;-72
2024/01/20 05:08:19;;;;;;;26.17;11.38;;;;;;;-1.03;76.95;101783.22;6238330;23;20103;-72
2024/01/20 05:10:46;;;;;;;30.00;11.77;;;;;;;-0.94;77.19;101781.28;6237591;23;20031;-72
2024/01/20 05:13:12;;;;;;;27.88;12.27;;;;;;;-0.89;77.15;101798.03;6238041;23;20366;-71
2024/01/20 05:15:39;;;;;;;29.23;11.45;;;;;;;-0.98;77.13;101800.91;6238237;23;20065;-73
2024/01/20 05:18:06;;;;;;;27.20;12.55;;;;;;;-0.96;77.33;101786.63;6239805;23;20028;-73
2024/01/20 05:20:34;;;;;;;26.83;12.55;;;;;;;-0.88;76.62;101789.13;6239689;23;20019;-73
2024/01/20 05:23:01;;;;;;;26.42;12.07;;;;;;;-0.88;77.26;101798.00;6239870;23;20032;-73
2024/01/20 05:25:28;;;;;;;27.70;12.32;;;;;;;-0.81;77.07;101804.94;6240543;23;20044;-73
2024/01/20 05:27:55;;;;;;;28.35;12.05;;;;;;;-0.69;76.84;101813.53;6239599;23;20524;-73
2024/01/20 05:30:22;;;;;;;30.98;12.80;;;;;;;-0.80;77.21;101806.69;6239705;23;20101;-73
2024/01/20 05:32:48;;;;;;;23.00;11.88;;;;;;;-0.64;77.17;101824.94;6238675;23;20024;-73
2024/01/20 05:35:16;;;;;;;27.58;11.90;;;;;;;-0.68;77.25;101826.81;6238166;23;20078;-73
2024/01/20 05:37:42;;;;;;;22.48;12.25;;;;;;;-0.48;76.37;101819.19;6237400;23;20027;-72
2024/01/20 05:40:09;;;;;;;30.58;13.00;;;;;;;-0.45;76.56;101832.44;6236682;23;20048;-72
2024/01/20 05:42:37;;;;;;;29.45;12.98;;;;;;;-0.47;76.16;101828.94;6236772;23;20024;-71
2024/01/20 05:45:06;;;;;;;26.40;12.82;;;;;;;-0.46;76.17;101833.34;6236892;23;20111;-72
2024/01/20 05:47:32;;;;;;;31.13;12.25;;;;;;;-0.39;76.06;101823.44;6236553;23;20323;-72
2024/01/20 05:49:59;;;;;;;29.40;12.70;;;;;;;-0.31;75.37;101828.56;6225380;22;20087;-72
2024/01/20 05:52:26;;;;;;;30.15;12.25;;;;;;;-0.34;75.54;101839.31;6237188;23;20032;-72
2024/01/20 05:54:52;;;;;;;25.17;12.00;;;;;;;-0.37;75.49;101842.03;6237713;23;20450;-72
2024/01/20 05:57:19;;;;;;;26.38;11.88;;;;;;;-0.34;75.25;101844.66;6237695;23;20024;-72
2024/01/20 05:59:46;;;;;;;28.70;11.63;;;;;;;-0.28;75.35;101841.81;6237783;23;20515;-72
2024/01/20 06:02:13;;;;;;;30.40;11.88;;;;;;;-0.43;75.20;101833.31;6238905;23;20086;-68
2024/01/20 06:04:39;;;;;;;28.45;12.40;;;;;;;-0.49;75.77;101830.78;6240380;23;20060;-67
2024/01/20 06:07:06;;;;;;;24.02;11.57;;;;;;;-0.61;75.89;101832.88;6213881;23;20315;-69
2024/01/20 06:09:33;;;;;;;31.40;12.15;;;;;;;-0.54;75.72;101838.00;6240492;23;20067;-67
2024/01/20 06:12:00;;;;;;;27.65;11.55;;;;;;;-0.66;75.96;101834.75;6240659;23;20031;-72
2024/01/20 06:14:29;;;;;;;29.20;11.65;;;;;;;-0.82;76.77;101823.56;6242136;23;20024;-68
2024/01/20 06:16:55;;;;;;;31.38;12.10;;;;;;;-0.83;76.93;101835.16;6240409;23;20028;-67
2024/01/20 06:19:22;;;;;;;29.27;11.18;;;;;;;-0.84;77.19;101838.72;6238330;23;20027;-67
2024/01/20 06:21:49;;;;;;;27.02;12.40;;;;;;;-0.85;77.04;101834.31;6212274;23;20039;-69
2024/01/20 06:24:15;;;;;;;25.27;12.05;;;;;;;-0.94;77.94;101840.72;6240202;23;20074;-67
2024/01/20 06:26:43;;;;;;;24.75;11.98;;;;;;;-0.98;77.94;101846.16;6239061;23;20074;-67
2024/01/20 06:29:11;;;;;;;24.88;13.00;;;;;;;-0.89;77.62;101848.63;6238677;23;20330;-67
2024/01/20 06:31:38;;;;;;;28.92;13.10;;;;;;;-0.99;78.02;101847.09;6238523;23;20032;-67
2024/01/20 06:34:04;;;;;;;24.45;11.27;;;;;;;-0.84;77.61;101857.38;6240626;23;20103;-68
2024/01/20 06:36:32;;;;;;;26.27;12.48;;;;;;;-0.87;78.11;101865.44;6238639;23;20024;-67
2024/01/20 06:38:59;;;;;;;31.75;13.52;;;;;;;-0.90;77.95;101860.19;6239717;23;20052;-67
2024/01/20 06:41:25;;;;;;;36.33;13.73;;;;;;;-0.99;78.69;101865.72;6239875;23;20024;-67
2024/01/20 06:43:54;;;;;;;26.20;12.93;;;;;;;-1.07;79.64;101876.53;6239456;23;20032;-68
2024/01/20 06:46:20;;;;;;;29.02;11.73;;;;;;;-0.82;78.78;101866.19;6208697;23;20028;-68
2024/01/20 06:48:47;;;;;;;29.38;13.38;;;;;;;-0.80;78.14;101870.59;6211046;23;20024;-67
2024/01/20 06:51:17;;;;;;;27.45;12.02;;;;;;;-0.64;77.86;101871.09;6238613;22;20435;-67
2024/01/20 06:53:44;;;;;;;28.48;12.70;;;;;;;-0.59;77.91;101866.56;6238820;23;20024;-67
2024/01/20 06:56:11;;;;;;;26.42;12.18;;;;;;;-0.55;77.49;101870.88;6241356;23;20020;-68
2024/01/20 06:58:37;;;;;;;25.30;12.15;;;;;;;-0.54;77.46;101872.63;6242594;23;20024;-69
2024/01/20 07:01:04;;;;;;;31.75;13.52;;;;;;;-0.54;77.02;101859.31;6239743;23;20030;-68
2024/01/20 07:03:31;;;;;;;31.27;13.00;;;;;;;-0.61;77.88;101873.72;6238577;23;20435;-69
2024/01/20 07:05:59;;;;;;;24.27;11.65;;;;;;;-0.48;77.63;101877.84;6238971;23;20039;-72
2024/01/20 07:08:26;;;;;;;21.65;12.30;;;;;;;-0.51;77.76;101877.91;6237318;23;20032;-72
2024/01/20 07:10:52;;;;;;;28.80;12.80;;;;;;;-0.46;78.05;101870.66;6236528;23;20347;-72
2024/01/20 07:13:21;;;;;;;29.08;12.80;;;;;;;-0.34;77.19;101881.97;6235860;23;20032;-71
2024/01/20 07:15:48;;;;;;;24.00;12.00;;;;;;;-0.49;77.58;101885.88;6237522;23;20102;-72
2024/01/20 07:18:14;;;;;;;31.00;12.77;;;;;;;-0.56;78.52;101882.47;6238411;23;20024;-72
2024/01/20 07:20:43;;;;;;;26.85;12.20;;;;;;;-0.52;78.25;101886.81;6210502;23;20031;-77
2024/01/20 07:23:10;;;;;;;23.08;11.68;;;;;;;-0.56;77.73;101885.13;6235686;23;20137;-71
2024/01/20 07:25:38;;;;;;;27.27;12.68;;;;;;;-0.49;77.52;101876.09;6234776;23;20031;-71
2024/01/20 07:28:05;;;;;;;32.67;12.73;;;;;;;-0.48;77.22;101888.50;6235059;23;20028;-71
2024/01/20 07:30:31;;;;;;;29.55;13.13;;;;;;;-0.38;77.51;101883.81;6209816;23;20024;-71
2024/01/20 07:32:58;;;;;;;27.83;12.90;;;;;;;-0.37;77.39;101895.34;6237190;23;20105;-71
2024/01/20 07:35:25;;;;;;;30.25;12.85;;;;;;;-0.24;76.96;101897.69;6237888;23;20181;-71
2024/01/20 07:37:52;;;;;;;31.13;12.55;;;;;;;-0.39;77.64;101903.38;6210895;23;20027;-71
2024/01/20 07:40:19;;;;;;;27.20;13.52;;;;;;;-0.19;77.02;101898.44;6237649;23;20044;-71
2024/01/20 07:42:45;;;;;;;28.45;12.70;;;;;;;-0.17;76.71;101898.41;6237963;23;20031;-73
2024/01/20 07:45:12;;;;;;;31.92;13.05;;;;;;;-0.27;76.67;101910.19;6237803;23;20074;-71
2024/01/20 07:47:38;;;;;;;28.75;12.48;;;;;;;-0.26;76.72;101917.28;6236959;23;20511;-71
2024/01/20 07:50:06;;;;;;;37.83;13.68;;;;;;;-0.19;76.75;101916.22;6238595;22;20031;-73
2024/01/20 07:52:33;;;;;;;24.02;12.80;;;;;;;-0.10;76.03;101918.66;6239092;23;20040;-73
2024/01/20 07:55:02;;;;;;;21.50;11.55;;;;;;;-0.12;76.36;101931.16;6238178;23;20031;-71
2024/01/20 07:57:29;;;;;;;29.77;12.32;;;;;;;0.01;75.25;101935.28;6238893;23;20020;-71
2024/01/20 07:59:56;;;;;;;31.42;12.65;;;;;;;-0.02;76.13;101929.16;6238586;23;20047;-73
2024/01/20 08:02:22;;;;;;;28.92;11.77;;;;;;;-0.13;76.19;101932.09;6239465;23;20486;-73
2024/01/20 08:04:49;;;;;;;24.58;11.70;;;;;;;-0.15;76.10;101944.59;6239094;23;20517;-72
2024/01/20 08:07:15;;;;;;;25.98;12.65;;;;;;;-0.08;75.81;101938.16;6238525;23;20054;-72
2024/01/20 08:09:42;;;;;;;28.85;11.50;;;;;;;-0.15;75.28;101939.25;6239045;23;20020;-72
2024/01/20 08:12:09;;;;;;;27.35;14.55;;;;;;;-0.06;75.47;101940.81;6237806;23;20150;-71
2024/01/20 08:14:35;;;;;;;21.10;11.75;;;;;;;-0.02;75.42;101948.69;6237890;23;20030;-71
2024/01/20 08:17:03;;;;;;;29.52;12.20;;;;;;;0.03;75.45;101944.13;6237550;23;20036;-71
2024/01/20 08:19:30;;;;;;;27.80;11.48;;;;;;;-0.06;75.38;101944.38;6238104;23;20043;-71
2024/01/20 08:21:56;;;;;;;30.55;13.35;;;;;;;0.16;75.08;101941.16;6238078;23;20078;-71
2024/01/20 08:24:23;;;;;;;25.48;12.70;;;;;;;0.18;74.80;101937.53;6239225;23;20020;-71
2024/01/20 08:26:50;;;;;;;20.92;11.02;;;;;;;0.14;74.64;101946.53;6241216;23;20020;-72
2024/01/20 08:29:18;;;;;;;21.77;11.05;;;;;;;0.21;75.18;101952.56;6240768;23;20028;-72
2024/01/20 08:31:45;;;;;;;23.80;11.55;;;;;;;0.18;74.48;101944.66;6240117;23;20027;-73
2024/01/20 08:34:11;;;;;;;26.77;12.55;;;;;;;0.34;74.48;101944.22;6239407;23;20327;-72
2024/01/20 08:36:38;;;;;;;22.23;11.27;;;;;;;0.35;74.42;101955.78;6213408;23;20506;-73
2024/01/20 08:39:08;;;;;;;22.83;11.10;;;;;;;0.36;73.96;101955.72;6240112;23;20091;-72
2024/01/20 08:41:34;;;;;;;30.20;12.85;;;;;;;0.40;74.15;101960.09;6237796;23;20445;-72
2024/01/20 08:44:01;;;;;;;24.95;10.65;;;;;;;0.40;73.90;101957.41;6239410;23;20118;-72
2024/01/20 08:46:27;;;;;;;27.80;11.30;;;;;;;0.50;74.27;101951.84;6239595;23;20097;-71
2024/01/20 08:48:54;;;;;;;24.90;12.70;;;;;;;0.52;74.22;101960.66;6237589;23;20426;-71
2024/01/20 08:51:20;;;;;;;30.42;12.57;;;;;;;0.47;74.48;101963.44;6237858;22;20028;-71
2024/01/20 08:53:49;;;;;;;28.08;11.10;;;;;;;0.55;74.47;101960.56;6239239;23;20028;-72
2024/01/20 08:56:15;;;;;;;23.23;10.60;;;;;;;0.55;73.99;101964.13;6238164;23;20028;-71
2024/01/20 08:58:42;;;;;;;25.75;11.50;;;;;;;0.49;74.60;101966.06;6237552;23;20024;-73
2024/01/20 09:01:08;;;;;;;24.15;10.85;;;;;;;0.46;73.90;101967.03;6238336;23;20032;-71
2024/01/20 09:03:35;;;;;;;25.50;10.80;;;;;;;0.63;73.69;101972.81;6237722;23;20024;-72
2024/01/20 09:06:02;;;;;;;27.15;10.48;;;;;;;0.67;73.91;101973.59;6237710;23;20134;-71
2024/01/20 09:08:29;;;;;;;22.02;10.38;;;;;;;0.65;73.46;101975.44;6238334;23;20020;-72
2024/01/20 09:10:56;;;;;;;24.55;12.23;;;;;;;0.78;73.13;101970.66;6237663;23;20043;-72
2024/01/20 09:13:23;;;;;;;20.98;9.90;;;;;;;0.93;72.92;101975.53;6237310;23;20086;-73
2024/01/20 09:15:49;;;;;;;22.20;9.52;;;;;;;0.86;72.38;101976.63;6237278;23;20024;-71
2024/01/20 09:18:17;;;;;;;23.42;10.35;;;;;;;0.85;72.80;101985.56;6237324;23;20309;-71
2024/01/20 09:20:47;;;;;;;20.38;10.10;;;;;;;0.86;72.58;101990.88;6237709;23;20485;-73
2024/01/20 09:23:13;;;;;;;24.88;10.68;;;;;;;0.84;71.99;101981.13;6237040;23;20028;-72
2024/01/20 09:25:40;;;;;;;17.67;9.85;;;;;;;0.66;72.71;101994.06;6236491;23;20052;-72
2024/01/20 09:28:07;;;;;;;24.98;10.25;;;;;;;0.73;73.24;102000.13;6210660;23;20024;-72
2024/01/20 09:30:35;;;;;;;22.80;10.93;;;;;;;0.86;72.63;102012.25;6237881;23;20020;-72
2024/01/20 09:33:04;;;;;;;22.63;10.20;;;;;;;0.77;72.43;102009.84;6236959;23;20504;-72
2024/01/20 09:35:32;;;;;;;22.85;11.07;;;;;;;0.76;72.93;102008.06;6236615;23;20467;-71
2024/01/20 09:37:58;;;;;;;31.42;11.45;;;;;;;0.75;72.48;102008.09;6237224;23;20030;-71
2024/01/20 09:40:25;;;;;;;29.52;10.32;;;;;;;0.84;72.73;102013.19;6236374;23;20024;-73
2024/01/20 09:42:52;;;;;;;25.33;10.45;;;;;;;0.80;72.99;102016.88;6235588;23;20092;-71
2024/01/20 09:45:19;;;;;;;25.48;10.60;;;;;;;0.81;72.73;102021.31;6235998;23;20454;-71
2024/01/20 09:47:46;;;;;;;23.92;10.75;;;;;;;0.80;72.72;102019.56;6236369;23;20052;-72
2024/01/20 09:50:13;;;;;;;30.20;10.60;;;;;;;0.86;72.28;102032.72;6236375;22;20503;-72
2024/01/20 09:52:58;;;;;;;28.15;11.05;;;;;;;0.81;72.27;102034.66;6236341;23;20016;-72
2024/01/20 09:55:26;;;;;;;27.35;10.98;;;;;;;0.97;71.90;102025.31;6237269;23;20091;-73
2024/01/20 09:57:54;;;;;;;23.80;9.85;;;;;;;1.10;71.40;102031.19;6236367;23;20020;-73
2024/01/20 10:00:23;;;;;;;23.20;9.38;;;;;;;1.22;71.35;102030.81;6236409;23;20114;-72
2024/01/20 10:02:50;;;;;;;23.98;10.35;;;;;;;1.32;70.71;102039.47;6236577;23;20396;-73
2024/01/20 10:05:16;;;;;;;22.58;10.30;;;;;;;1.39;70.32;102041.03;6209745;23;20434;-73
2024/01/20 10:07:43;;;;;;;21.85;9.55;;;;;;;1.63;69.17;102023.41;6237071;23;20016;-73
2024/01/20 10:10:21;;;;;;;28.63;9.75;;;;;;;2.29;66.10;102023.06;6236515;23;20027;-72
2024/01/20 10:12:53;;;;;;;26.60;10.30;;;;;;;2.14;66.14;102029.78;6235651;23;20027;-71
2024/01/20 10:15:26;;;;;;;;;;;;;;;2.54;64.56;102030.31;6235957;23;20086;-71
2024/01/20 10:18:05;;;;;;;21.77;9.95;;;;;;;2.58;64.86;102029.25;6236466;23;19973;-73
2024/01/20 10:20:35;;;;;;;22.83;9.05;;;;;;;2.51;64.28;102036.63;6235825;23;20094;-73
2024/01/20 10:23:05;;;;;;;22.70;9.13;;;;;;;2.29;64.91;102044.50;6235581;23;20016;-72
2024/01/20 10:25:32;;;;;;;21.13;10.00;;;;;;;2.94;63.63;102041.38;6235781;23;20040;-72
2024/01/20 10:27:59;;;;;;;22.83;9.98;;;;;;;2.66;63.42;102043.28;6236648;23;20335;-72
2024/01/20 10:30:26;;;;;;;23.15;9.60;;;;;;;2.73;63.78;102042.13;6236093;23;20043;-73
2024/01/20 10:32:53;;;;;;;23.65;8.98;;;;;;;2.78;63.11;102050.88;6235685;23;20047;-72
2024/01/20 10:35:35;;;;;;;19.02;10.27;;;;;;;3.29;61.61;102039.25;6234987;23;20079;-72
2024/01/20 10:38:13;;;;;;;21.27;9.60;;;;;;;3.11;61.62;102039.91;6235231;23;20023;-72
2024/01/20 10:40:45;;;;;;;22.88;8.57;;;;;;;3.24;61.84;102052.81;6207956;23;20665;-71
2024/01/20 10:43:14;;;;;;;19.35;9.10;;;;;;;3.11;61.26;102056.00;6235682;23;20058;-72
2024/01/20 10:45:47;;;;;;;16.55;8.90;;;;;;;3.00;62.30;102054.56;6235150;23;20035;-73
2024/01/20 10:48:26;;;;;;;19.30;9.25;;;;;;;2.93;62.43;102061.06;6235352;23;20101;-71
2024/01/20 10:50:59;;;;;;;24.60;8.93;;;;;;;2.78;62.65;102064.28;6234418;22;20194;-71
2024/01/20 10:53:26;;;;;;;22.25;9.25;;;;;;;2.52;64.27;102067.81;6235644;23;20020;-72
2024/01/20 10:55:54;;;;;;;22.60;9.38;;;;;;;2.56;63.98;102056.09;6235116;23;20364;-71
2024/01/20 10:58:30;;;;;;;19.98;8.55;;;;;;;2.46;64.73;102065.38;6237521;23;20028;-72
2024/01/20 11:00:57;;;;;;;16.67;8.80;;;;;;;2.66;63.61;102054.00;6237731;23;20020;-71
2024/01/20 11:03:24;;;;;;;18.33;9.02;;;;;;;2.57;63.92;102038.22;6236252;23;20032;-72
2024/01/20 11:05:51;;;;;;;18.60;9.07;;;;;;;2.60;63.69;102052.38;6235539;23;20028;-72
2024/01/20 11:08:25;;;;;;;18.85;9.23;;;;;;;2.66;64.14;102051.31;6236751;23;20024;-72
2024/01/20 11:10:54;;;;;;;25.17;10.45;;;;;;;2.63;63.61;102054.06;6234548;23;20028;-72
2024/01/20 11:13:26;;;;;;;19.27;9.05;;;;;;;2.72;63.66;102048.41;6232547;23;20038;-71
2024/01/20 11:16:38;;;;;;;21.17;10.20;;;;;;;2.80;63.58;102057.06;6234641;23;20070;-70
2024/01/20 11:19:27;;;;;;;20.42;9.48;;;;;;;2.85;63.08;102054.22;6132637;23;20424;-71